createdAt,value
2023-01-31T00:00:07.376Z,-1.1
2023-01-31T00:05:14.330Z,-1.2
2023-01-31T00:10:37.759Z,-1.2
2023-01-31T00:16:01.102Z,-1.2
2023-01-31T00:21:24.337Z,-1.2
2023-01-31T00:26:48.239Z,-1.3
2023-01-31T00:32:12.542Z,-1.3
2023-01-31T00:37:34.752Z,-1.3
2023-01-31T00:42:41.993Z,-1.3
2023-01-31T00:47:49.368Z,-1.4
2023-01-31T00:53:12.456Z,-1.4
2023-01-31T00:58:36.453Z,-1.4
2023-01-31T01:03:59.998Z,-1.4
2023-01-31T01:09:23.362Z,-1.3
2023-01-31T01:14:45.695Z,-1.2
2023-01-31T01:20:10.233Z,-1.2
2023-01-31T01:25:34.844Z,-1.1
2023-01-31T01:30:57.394Z,-1.1
2023-01-31T01:36:06.076Z,-1.1
2023-01-31T01:41:29.833Z,-1.1
2023-01-31T01:46:37.932Z,-1.1
2023-01-31T01:51:46.531Z,-1
2023-01-31T01:56:54.200Z,-0.7
2023-01-31T02:02:15.980Z,-0.4
2023-01-31T02:07:38.830Z,-0.6
2023-01-31T02:13:02.734Z,-0.6
2023-01-31T02:18:10.580Z,-0.4
2023-01-31T02:23:17.692Z,-0.4
2023-01-31T02:28:40.106Z,-0.4
2023-01-31T02:34:02.951Z,-0.2
2023-01-31T02:39:26.474Z,-0.3
2023-01-31T02:44:32.408Z,-0.4
2023-01-31T02:49:55.333Z,-0.7
2023-01-31T02:55:18.411Z,-0.8
2023-01-31T03:00:41.349Z,-0.8
2023-01-31T03:06:05.334Z,-0.9
2023-01-31T03:11:29.032Z,-0.8
2023-01-31T03:16:51.834Z,-0.7
2023-01-31T03:21:43.123Z,-0.8
2023-01-31T03:27:07.332Z,-0.7
2023-01-31T03:32:30.961Z,-0.7
2023-01-31T03:37:53.041Z,-0.6
2023-01-31T03:43:16.965Z,-0.6
2023-01-31T03:48:40.621Z,-0.6
2023-01-31T03:54:02.818Z,-0.8
2023-01-31T03:59:26.225Z,-0.8
2023-01-31T04:04:34.048Z,-0.7
2023-01-31T04:09:57.030Z,-0.6
2023-01-31T04:15:05.269Z,-0.5
2023-01-31T04:20:28.251Z,-0.4
2023-01-31T04:25:52.197Z,-0.3
2023-01-31T04:31:15.068Z,-0.5
2023-01-31T04:36:39.195Z,-0.6
2023-01-31T04:42:01.741Z,-0.6
2023-01-31T04:47:25.590Z,-0.6
2023-01-31T04:52:48.697Z,-0.6
2023-01-31T04:58:12.006Z,-0.6
2023-01-31T05:03:35.459Z,-0.6
2023-01-31T05:08:44.719Z,-0.6
2023-01-31T05:14:08.261Z,-0.5
2023-01-31T05:19:31.446Z,-0.4
2023-01-31T05:24:55.638Z,-0.4
2023-01-31T05:30:23.109Z,-0.4
2023-01-31T05:35:49.343Z,-0.4
2023-01-31T05:41:12.211Z,-0.4
2023-01-31T05:46:34.867Z,-0.4
2023-01-31T05:51:42.423Z,-0.3
2023-01-31T05:56:50.731Z,-0.3
2023-01-31T06:02:13.707Z,-0.3
2023-01-31T06:07:22.708Z,-0.1
2023-01-31T06:12:45.173Z,-0.1
2023-01-31T06:17:54.036Z,0
2023-01-31T06:23:17.061Z,0.1
2023-01-31T06:28:40.324Z,0.1
2023-01-31T06:34:16.369Z,0.2
2023-01-31T06:39:40.861Z,0.3
2023-01-31T06:44:33.521Z,0.3
2023-01-31T06:49:57.914Z,0.4
2023-01-31T06:55:21.512Z,0.4
2023-01-31T07:00:44.124Z,0.4
2023-01-31T07:06:07.389Z,0.6
2023-01-31T07:11:30.559Z,0.6
2023-01-31T07:16:53.839Z,0.7
2023-01-31T07:22:16.369Z,0.7
2023-01-31T07:27:41.397Z,0.8
2023-01-31T07:34:01.932Z,0.8
2023-01-31T07:39:24.940Z,0.8
2023-01-31T07:44:48.734Z,0.9
2023-01-31T07:50:40.744Z,0.9
2023-01-31T07:56:04.357Z,1
2023-01-31T08:01:27.785Z,1
2023-01-31T08:06:58.149Z,1.1
2023-01-31T08:12:21.200Z,1.4
2023-01-31T08:17:44.222Z,1.6
2023-01-31T08:23:07.588Z,1.8
2023-01-31T08:28:31.939Z,2.1
2023-01-31T08:34:09.762Z,1.9
2023-01-31T08:39:46.335Z,2
2023-01-31T08:45:23.421Z,2.1
2023-01-31T08:50:44.253Z,2.1
2023-01-31T08:56:07.822Z,1.9
2023-01-31T09:01:43.268Z,2.6
2023-01-31T09:07:07.078Z,2.9
2023-01-31T09:12:30.372Z,3.1
2023-01-31T09:17:53.215Z,3.9
2023-01-31T09:23:01.651Z,3.6
2023-01-31T09:28:39.690Z,3.7
2023-01-31T09:34:04.006Z,4.1
2023-01-31T09:39:27.253Z,3.8
2023-01-31T09:44:49.855Z,4.2
2023-01-31T09:50:13.763Z,4.2
2023-01-31T09:55:38.436Z,4.5
2023-01-31T10:01:02.302Z,3.8
2023-01-31T10:06:25.781Z,4.1
2023-01-31T10:11:34.185Z,4.4
2023-01-31T10:16:42.436Z,4.2
2023-01-31T10:21:52.756Z,4.7
2023-01-31T10:27:02.604Z,4.3
2023-01-31T10:32:09.867Z,4
2023-01-31T10:37:17.266Z,3.7
2023-01-31T10:42:41.668Z,3.7
2023-01-31T10:48:05.228Z,4.1
2023-01-31T10:53:29.426Z,4.5
2023-01-31T10:58:52.246Z,4.3
2023-01-31T11:04:15.047Z,3.7
2023-01-31T11:09:22.965Z,3.6
2023-01-31T11:14:45.510Z,3.4
2023-01-31T11:20:08.394Z,3.1
2023-01-31T11:25:31.022Z,2.9
2023-01-31T11:30:54.269Z,2.4
2023-01-31T11:36:16.795Z,2.2
2023-01-31T11:41:23.862Z,2.1
2023-01-31T11:46:46.762Z,2
2023-01-31T11:52:12.784Z,2.1
2023-01-31T11:57:35.772Z,2.1
2023-01-31T12:02:59.301Z,2.1
2023-01-31T12:08:36.051Z,1.9
2023-01-31T12:14:09.105Z,2.1
2023-01-31T12:19:34.749Z,2.3
2023-01-31T12:24:59.031Z,2.3
2023-01-31T12:30:22.506Z,2.2
2023-01-31T12:36:00.545Z,2.1
2023-01-31T12:41:32.234Z,2.2
2023-01-31T12:47:09.878Z,2.1
2023-01-31T12:52:33.280Z,2.2
2023-01-31T12:57:56.740Z,2.4
2023-01-31T13:03:33.202Z,2.6
2023-01-31T13:09:07.564Z,2.6
2023-01-31T13:14:32.086Z,2.8
2023-01-31T13:19:39.524Z,2.7
2023-01-31T13:25:02.666Z,2.6
2023-01-31T13:30:25.604Z,2.7
2023-01-31T13:35:49.061Z,2.4
2023-01-31T13:40:56.588Z,2.4
2023-01-31T13:46:19.349Z,2.6
2023-01-31T13:51:43.121Z,2.6
2023-01-31T13:57:09.117Z,2.4
2023-01-31T14:02:19.092Z,2.4
2023-01-31T14:07:41.767Z,2.3
2023-01-31T14:13:05.744Z,2.2
2023-01-31T14:18:29.600Z,2.2
2023-01-31T14:23:52.561Z,2.2
2023-01-31T14:29:17.104Z,2.1
2023-01-31T14:34:40.403Z,2.1
2023-01-31T14:40:03.235Z,1.9
2023-01-31T14:45:26.357Z,1.9
2023-01-31T14:50:53.775Z,1.9
2023-01-31T14:56:15.326Z,1.8
2023-01-31T15:01:38.497Z,1.7
2023-01-31T15:07:01.054Z,1.6
2023-01-31T15:12:32.820Z,1.6
2023-01-31T15:18:25.175Z,1.6
2023-01-31T15:23:48.001Z,1.5
2023-01-31T15:29:11.092Z,1.4
2023-01-31T15:34:34.490Z,1.4
2023-01-31T15:39:41.448Z,1.4
2023-01-31T15:45:04.638Z,1.4
2023-01-31T15:50:44.768Z,1.3
2023-01-31T15:56:10.476Z,1.3
2023-01-31T16:01:34.282Z,1.3
2023-01-31T16:06:57.008Z,1.3
2023-01-31T16:11:54.098Z,1.3
2023-01-31T16:17:17.273Z,1.3
2023-01-31T16:22:40.200Z,1.3
2023-01-31T16:28:03.184Z,1.3
2023-01-31T16:33:27.543Z,1.3
2023-01-31T16:38:49.177Z,1.3
2023-01-31T16:44:11.596Z,1.3
2023-01-31T16:49:34.381Z,1.2
2023-01-31T16:55:13.855Z,1.1
2023-01-31T17:00:37.326Z,1.2
2023-01-31T17:06:03.743Z,1.2
2023-01-31T17:11:13.791Z,1.1
2023-01-31T17:16:33.752Z,1.1
2023-01-31T17:22:02.407Z,1.1
2023-01-31T17:27:37.820Z,1.1
2023-01-31T17:33:05.870Z,1.1
2023-01-31T17:38:38.524Z,1.1
2023-01-31T17:44:12.437Z,1
2023-01-31T17:49:35.803Z,1
2023-01-31T17:54:58.970Z,1.1
2023-01-31T18:00:38.483Z,1
2023-01-31T18:06:31.060Z,1
2023-01-31T18:11:50.745Z,1
2023-01-31T18:17:25.745Z,0.9
2023-01-31T18:23:04.769Z,0.9
2023-01-31T18:28:32.212Z,0.9
2023-01-31T18:34:10.124Z,0.9
2023-01-31T18:45:40.289Z,0.9
2023-01-31T18:51:15.559Z,0.9
2023-01-31T18:56:51.237Z,0.9
2023-01-31T19:02:29.351Z,0.8
2023-01-31T19:07:46.791Z,0.8
2023-01-31T19:12:55.246Z,0.9
2023-01-31T19:18:00.620Z,0.9
2023-01-31T19:23:37.651Z,0.9
2023-01-31T19:28:57.418Z,0.9
2023-01-31T19:34:35.248Z,0.9
2023-01-31T19:40:11.942Z,0.9
2023-01-31T19:45:56.294Z,0.8
2023-01-31T19:51:36.021Z,0.8
2023-01-31T19:56:51.914Z,0.7
2023-01-31T20:01:59.064Z,0.6
2023-01-31T20:07:06.839Z,0.6
2023-01-31T20:12:14.390Z,0.5
2023-01-31T20:17:38.689Z,0.5
2023-01-31T20:22:47.896Z,0.4
2023-01-31T20:28:11.076Z,0.4
2023-01-31T20:33:34.203Z,0.3
2023-01-31T20:38:26.003Z,0.2
2023-01-31T20:48:58.362Z,0.2
2023-01-31T20:54:06.272Z,0
2023-01-31T20:59:13.853Z,-0.1
2023-01-31T21:04:21.308Z,-0.1
2023-01-31T21:09:28.517Z,-0.2
2023-01-31T21:14:51.617Z,-0.3
2023-01-31T21:20:24.873Z,-0.3
2023-01-31T21:25:31.810Z,-0.2
2023-01-31T21:30:55.786Z,-0.3
2023-01-31T21:36:19.030Z,-0.3
2023-01-31T21:41:41.755Z,-0.2
2023-01-31T21:46:49.053Z,-0.1
2023-01-31T21:51:59.409Z,0
2023-01-31T21:57:22.393Z,-0.1
2023-01-31T22:02:46.064Z,-0.1
2023-01-31T22:07:53.301Z,-0.1
2023-01-31T22:13:01.023Z,-0.2
2023-01-31T22:18:26.176Z,-0.3
2023-01-31T22:23:49.422Z,-0.3
2023-01-31T22:29:12.311Z,-0.3
2023-01-31T22:34:49.981Z,-0.2
2023-01-31T22:40:12.831Z,-0.2
2023-01-31T22:45:37.129Z,-0.1
2023-01-31T22:51:00.440Z,-0.1
2023-01-31T22:56:23.153Z,-0.1
2023-01-31T23:01:45.745Z,0
2023-01-31T23:07:08.637Z,0.1
2023-01-31T23:12:00.132Z,0.3
2023-01-31T23:17:22.550Z,0.2
2023-01-31T23:22:30.140Z,0.1
2023-01-31T23:27:53.255Z,0.3
2023-01-31T23:33:17.184Z,0.2
2023-01-31T23:38:24.728Z,0.3
2023-01-31T23:43:31.910Z,0.3
2023-01-31T23:48:54.318Z,0.3
2023-01-31T23:54:18.728Z,0.2
2023-01-31T23:59:40.568Z,0.2
